»·PEaware :: N6507W KMHV-KDAG

N6507W :: KMHV-KDAG

FLIGHT INFORMATION

Flight Status: Arrived
Operator: Privately registered:
United States
More flights under this callsign
Pilot: Jukka N. (18040)
Aircraft: PIPER PA-18 SUPER CUB
(PA18)
More flights by this aircraft type
Origin: KMHV Mojave
United States
Destination: KDAG Barstow-Daggett
United States
More flights between these airports :: More routes between these airports
Route:
File this flight plan on PilotEdge
Remarks:
Altitude:
(Current/Filed)
5,500ft
Speed:
(Current/Filed)
150kts
Departed: 12-Mar-19 12:34 PM
Arrived: 12-Mar-19 01:13 PM
Distance/Time
Traveled:
68nm/0:39
Distance/Time
To Go:
Arrived

Flight Plot

Page will automatically refresh every two minutes.

Flight plan parsing failed; only flown route is shown


Map Options




Map Legend


Flown Route
Filed Route
Departure Airport
Arrival Airport
Navaid (VOR, NDB)
Fix

Horizontal Profiles

Position Reports

Time Latitude Longitude Heading Altitude Ground
Speed
12-Mar-19 12:19 35.057242 -118.158044 269 2795ft 0kts
12-Mar-19 12:20 35.057242 -118.158044 270 2795ft 0kts
12-Mar-19 12:21 35.057242 -118.158044 270 2795ft 0kts
12-Mar-19 12:22 35.057242 -118.158044 269 2795ft 0kts
12-Mar-19 12:23 35.057242 -118.158044 269 2795ft 0kts
12-Mar-19 12:24 35.057242 -118.158044 269 2795ft 0kts
12-Mar-19 12:25 35.057242 -118.158044 270 2795ft 0kts
12-Mar-19 12:26 35.057249 -118.158229 291 2795ft 0kts
12-Mar-19 12:27 35.057563 -118.152030 91 2795ft 30kts
12-Mar-19 12:28 35.057592 -118.143256 88 2795ft 18kts
12-Mar-19 12:29 35.058081 -118.142611 355 2795ft 0kts
12-Mar-19 12:30 35.058082 -118.142611 354 2795ft 0kts
12-Mar-19 12:31 35.058082 -118.142612 354 2795ft 0kts
12-Mar-19 12:32 35.058099 -118.142614 355 2795ft 2kts
12-Mar-19 12:33 35.059150 -118.147966 273 2896ft 63kts
12-Mar-19 12:34 35.059458 -118.174086 283 3750ft 83kts
12-Mar-19 12:35 35.066998 -118.198880 297 4818ft 80kts
12-Mar-19 12:36 35.084005 -118.216078 337 5629ft 84kts
12-Mar-19 12:37 35.110653 -118.223120 357 5768ft 106kts
12-Mar-19 12:38 35.129212 -118.195316 92 5704ft 135kts
12-Mar-19 12:39 35.125512 -118.150102 82 5633ft 141kts
12-Mar-19 12:40 35.128907 -118.104087 73 5609ft 132kts
12-Mar-19 12:41 35.134804 -118.059552 73 5615ft 132kts
12-Mar-19 12:42 35.131217 -118.015199 115 5623ft 143kts
12-Mar-19 12:43 35.111878 -117.972462 115 5632ft 143kts
12-Mar-19 12:44 35.092893 -117.929685 115 5641ft 139kts
12-Mar-19 12:45 35.075353 -117.887811 120 5645ft 139kts
12-Mar-19 12:46 35.055794 -117.846710 120 5650ft 139kts
12-Mar-19 12:47 35.037178 -117.805179 119 5654ft 139kts
12-Mar-19 12:48 35.018823 -117.763262 119 5658ft 139kts
12-Mar-19 12:49 35.000802 -117.721569 112 5659ft 138kts
12-Mar-19 12:50 34.993496 -117.675483 100 5661ft 138kts
12-Mar-19 12:51 34.986389 -117.629219 100 5668ft 138kts
12-Mar-19 12:52 34.979313 -117.582903 100 5675ft 138kts
12-Mar-19 12:53 34.972307 -117.536595 99 5683ft 138kts
12-Mar-19 12:54 34.965409 -117.490478 99 5692ft 138kts
12-Mar-19 12:55 34.958553 -117.444119 99 5702ft 138kts
12-Mar-19 12:56 34.951780 -117.397820 99 5713ft 138kts
12-Mar-19 12:57 34.944745 -117.351947 99 5724ft 136kts
12-Mar-19 12:58 34.937248 -117.306609 99 5726ft 135kts
12-Mar-19 12:59 34.929802 -117.261575 99 5728ft 135kts
12-Mar-19 13:00 34.922664 -117.215422 99 5728ft 140kts
12-Mar-19 13:01 34.916412 -117.167966 99 5726ft 141kts
12-Mar-19 13:02 34.909646 -117.120712 99 5722ft 141kts
12-Mar-19 13:03 34.903340 -117.073115 99 5721ft 141kts
12-Mar-19 13:04 34.897117 -117.025653 99 5718ft 141kts
12-Mar-19 13:05 34.890976 -116.978327 99 5715ft 141kts
12-Mar-19 13:06 34.884891 -116.930930 99 5713ft 141kts
12-Mar-19 13:07 34.873054 -116.891509 134 5010ft 93kts
12-Mar-19 13:08 34.861714 -116.868628 127 4230ft 72kts
12-Mar-19 13:09 34.854485 -116.846025 109 3562ft 74kts
12-Mar-19 13:10 34.851815 -116.821122 96 2642ft 73kts
12-Mar-19 13:11 34.851410 -116.797720 87 1982ft 66kts
12-Mar-19 13:12 34.850633 -116.782826 264 1929ft 0kts
12-Mar-19 13:14 34.850660 -116.783220 256 1929ft 0kts

Navigation Log

Ident Type
Flight plan parsing failed, navigation log unavailable